sensor_id;sensor_type;location;lat;lon;timestamp;P1;durP1;ratioP1;P2;durP2;ratioP2
32637;SDS011;19045;52.268;10.506;2022-11-20T00:02:08;31.20;;;18.40;;
32637;SDS011;19045;52.268;10.506;2022-11-20T00:04:36;27.75;;;16.60;;
32637;SDS011;19045;52.268;10.506;2022-11-20T00:07:03;27.48;;;16.98;;
32637;SDS011;19045;52.268;10.506;2022-11-20T00:09:30;27.58;;;17.05;;
32637;SDS011;19045;52.268;10.506;2022-11-20T00:11:56;28.08;;;17.25;;
32637;SDS011;19045;52.268;10.506;2022-11-20T00:14:23;29.08;;;18.00;;
32637;SDS011;19045;52.268;10.506;2022-11-20T00:16:49;27.55;;;18.33;;
32637;SDS011;19045;52.268;10.506;2022-11-20T00:19:16;29.40;;;17.45;;
32637;SDS011;19045;52.268;10.506;2022-11-20T00:21:44;29.92;;;17.52;;
32637;SDS011;19045;52.268;10.506;2022-11-20T00:24:11;27.58;;;17.75;;
32637;SDS011;19045;52.268;10.506;2022-11-20T00:26:37;27.83;;;17.38;;
32637;SDS011;19045;52.268;10.506;2022-11-20T00:29:04;28.08;;;17.20;;
32637;SDS011;19045;52.268;10.506;2022-11-20T00:31:31;25.35;;;16.58;;
32637;SDS011;19045;52.268;10.506;2022-11-20T00:33:58;28.30;;;16.88;;
32637;SDS011;19045;52.268;10.506;2022-11-20T00:36:25;28.63;;;16.65;;
32637;SDS011;19045;52.268;10.506;2022-11-20T00:38:56;24.70;;;16.15;;
32637;SDS011;19045;52.268;10.506;2022-11-20T00:41:23;27.10;;;16.05;;
32637;SDS011;19045;52.268;10.506;2022-11-20T00:43:52;24.70;;;16.50;;
32637;SDS011;19045;52.268;10.506;2022-11-20T00:46:20;23.13;;;14.65;;
32637;SDS011;19045;52.268;10.506;2022-11-20T00:48:47;27.60;;;15.88;;
32637;SDS011;19045;52.268;10.506;2022-11-20T00:51:16;26.83;;;15.80;;
32637;SDS011;19045;52.268;10.506;2022-11-20T00:53:44;26.48;;;14.90;;
32637;SDS011;19045;52.268;10.506;2022-11-20T00:56:13;25.15;;;15.43;;
32637;SDS011;19045;52.268;10.506;2022-11-20T00:58:41;25.60;;;14.98;;
32637;SDS011;19045;52.268;10.506;2022-11-20T01:01:09;22.00;;;13.77;;
32637;SDS011;19045;52.268;10.506;2022-11-20T01:03:37;26.15;;;15.52;;
32637;SDS011;19045;52.268;10.506;2022-11-20T01:06:06;31.02;;;16.63;;
32637;SDS011;19045;52.268;10.506;2022-11-20T01:08:36;26.60;;;15.55;;
32637;SDS011;19045;52.268;10.506;2022-11-20T01:11:03;29.27;;;16.77;;
32637;SDS011;19045;52.268;10.506;2022-11-20T01:13:33;23.98;;;14.98;;
32637;SDS011;19045;52.268;10.506;2022-11-20T01:16:03;24.02;;;15.45;;
32637;SDS011;19045;52.268;10.506;2022-11-20T01:18:30;30.90;;;16.05;;
32637;SDS011;19045;52.268;10.506;2022-11-20T01:20:59;25.33;;;15.20;;
32637;SDS011;19045;52.268;10.506;2022-11-20T01:23:29;24.20;;;15.15;;
32637;SDS011;19045;52.268;10.506;2022-11-20T01:25:57;26.33;;;15.50;;
32637;SDS011;19045;52.268;10.506;2022-11-20T01:28:26;23.88;;;15.32;;
32637;SDS011;19045;52.268;10.506;2022-11-20T01:30:54;26.08;;;15.63;;
32637;SDS011;19045;52.268;10.506;2022-11-20T01:33:20;23.10;;;14.75;;
32637;SDS011;19045;52.268;10.506;2022-11-20T01:35:47;25.90;;;14.88;;
32637;SDS011;19045;52.268;10.506;2022-11-20T01:38:14;25.88;;;15.32;;
32637;SDS011;19045;52.268;10.506;2022-11-20T01:40:41;24.80;;;15.15;;
32637;SDS011;19045;52.268;10.506;2022-11-20T01:43:12;24.58;;;14.60;;
32637;SDS011;19045;52.268;10.506;2022-11-20T01:48:50;23.45;;;15.88;;
32637;SDS011;19045;52.268;10.506;2022-11-20T01:51:25;26.67;;;15.18;;
32637;SDS011;19045;52.268;10.506;2022-11-20T01:53:55;23.20;;;15.13;;
32637;SDS011;19045;52.268;10.506;2022-11-20T01:56:26;25.02;;;15.55;;
32637;SDS011;19045;52.268;10.506;2022-11-20T01:58:55;25.10;;;16.50;;
32637;SDS011;19045;52.268;10.506;2022-11-20T02:01:25;26.75;;;15.95;;
32637;SDS011;19045;52.268;10.506;2022-11-20T02:03:52;23.80;;;15.73;;
32637;SDS011;19045;52.268;10.506;2022-11-20T02:06:22;23.88;;;15.25;;
32637;SDS011;19045;52.268;10.506;2022-11-20T02:08:51;26.52;;;16.35;;
32637;SDS011;19045;52.268;10.506;2022-11-20T02:11:18;23.10;;;15.27;;
32637;SDS011;19045;52.268;10.506;2022-11-20T02:13:45;25.92;;;16.33;;
32637;SDS011;19045;52.268;10.506;2022-11-20T02:16:13;24.30;;;15.63;;
32637;SDS011;19045;52.268;10.506;2022-11-20T02:18:44;21.85;;;14.63;;
32637;SDS011;19045;52.268;10.506;2022-11-20T02:21:14;27.13;;;16.13;;
32637;SDS011;19045;52.268;10.506;2022-11-20T02:24:02;25.63;;;16.70;;
32637;SDS011;19045;52.268;10.506;2022-11-20T02:26:32;28.48;;;16.73;;
32637;SDS011;19045;52.268;10.506;2022-11-20T02:29:03;32.17;;;18.00;;
32637;SDS011;19045;52.268;10.506;2022-11-20T02:31:33;28.58;;;17.33;;
32637;SDS011;19045;52.268;10.506;2022-11-20T02:34:02;32.95;;;15.55;;
32637;SDS011;19045;52.268;10.506;2022-11-20T02:36:29;29.90;;;17.70;;
32637;SDS011;19045;52.268;10.506;2022-11-20T02:38:58;28.45;;;17.17;;
32637;SDS011;19045;52.268;10.506;2022-11-20T02:41:31;31.23;;;19.10;;
32637;SDS011;19045;52.268;10.506;2022-11-20T02:44:01;29.63;;;16.85;;
32637;SDS011;19045;52.268;10.506;2022-11-20T02:46:29;31.58;;;17.63;;
32637;SDS011;19045;52.268;10.506;2022-11-20T02:48:56;27.92;;;17.63;;
32637;SDS011;19045;52.268;10.506;2022-11-20T02:51:23;26.20;;;16.67;;
32637;SDS011;19045;52.268;10.506;2022-11-20T02:53:50;29.42;;;17.00;;
32637;SDS011;19045;52.268;10.506;2022-11-20T02:56:16;25.15;;;16.00;;
32637;SDS011;19045;52.268;10.506;2022-11-20T02:58:45;27.10;;;16.60;;
32637;SDS011;19045;52.268;10.506;2022-11-20T03:01:11;25.92;;;16.38;;
32637;SDS011;19045;52.268;10.506;2022-11-20T03:03:38;24.30;;;15.18;;
32637;SDS011;19045;52.268;10.506;2022-11-20T03:06:05;24.48;;;16.20;;
32637;SDS011;19045;52.268;10.506;2022-11-20T03:08:32;26.30;;;16.67;;
32637;SDS011;19045;52.268;10.506;2022-11-20T03:11:01;26.42;;;17.60;;
32637;SDS011;19045;52.268;10.506;2022-11-20T03:13:29;24.50;;;16.30;;
32637;SDS011;19045;52.268;10.506;2022-11-20T03:15:57;23.08;;;16.08;;
32637;SDS011;19045;52.268;10.506;2022-11-20T03:18:24;27.50;;;17.27;;
32637;SDS011;19045;52.268;10.506;2022-11-20T03:20:56;25.10;;;15.75;;
32637;SDS011;19045;52.268;10.506;2022-11-20T03:23:24;27.65;;;18.05;;
32637;SDS011;19045;52.268;10.506;2022-11-20T03:25:51;28.00;;;18.20;;
32637;SDS011;19045;52.268;10.506;2022-11-20T03:28:17;28.27;;;17.05;;
32637;SDS011;19045;52.268;10.506;2022-11-20T03:30:44;25.73;;;16.25;;
32637;SDS011;19045;52.268;10.506;2022-11-20T03:33:12;27.70;;;16.65;;
32637;SDS011;19045;52.268;10.506;2022-11-20T03:35:38;26.50;;;16.90;;
32637;SDS011;19045;52.268;10.506;2022-11-20T03:38:05;26.50;;;16.63;;
32637;SDS011;19045;52.268;10.506;2022-11-20T03:40:33;27.02;;;16.52;;
32637;SDS011;19045;52.268;10.506;2022-11-20T03:43:00;27.77;;;15.18;;
32637;SDS011;19045;52.268;10.506;2022-11-20T03:45:27;26.65;;;17.33;;
32637;SDS011;19045;52.268;10.506;2022-11-20T03:47:54;24.23;;;15.70;;
32637;SDS011;19045;52.268;10.506;2022-11-20T03:50:21;23.40;;;15.77;;
32637;SDS011;19045;52.268;10.506;2022-11-20T03:52:48;22.23;;;15.10;;
32637;SDS011;19045;52.268;10.506;2022-11-20T03:55:15;28.90;;;16.75;;
32637;SDS011;19045;52.268;10.506;2022-11-20T03:57:41;26.05;;;15.88;;
32637;SDS011;19045;52.268;10.506;2022-11-20T04:00:08;25.48;;;14.95;;
32637;SDS011;19045;52.268;10.506;2022-11-20T04:02:36;23.85;;;15.82;;
32637;SDS011;19045;52.268;10.506;2022-11-20T04:05:03;25.65;;;15.68;;
32637;SDS011;19045;52.268;10.506;2022-11-20T04:07:33;25.25;;;16.13;;
32637;SDS011;19045;52.268;10.506;2022-11-20T04:10:00;25.25;;;16.58;;
32637;SDS011;19045;52.268;10.506;2022-11-20T04:12:26;26.77;;;15.50;;
32637;SDS011;19045;52.268;10.506;2022-11-20T04:14:53;25.35;;;16.10;;
32637;SDS011;19045;52.268;10.506;2022-11-20T04:17:20;26.65;;;16.50;;
32637;SDS011;19045;52.268;10.506;2022-11-20T04:19:46;29.58;;;17.63;;
32637;SDS011;19045;52.268;10.506;2022-11-20T04:22:13;26.55;;;16.85;;
32637;SDS011;19045;52.268;10.506;2022-11-20T04:24:41;27.83;;;16.27;;
32637;SDS011;19045;52.268;10.506;2022-11-20T04:27:07;24.58;;;15.73;;
32637;SDS011;19045;52.268;10.506;2022-11-20T04:29:34;26.50;;;16.08;;
32637;SDS011;19045;52.268;10.506;2022-11-20T04:32:01;30.33;;;18.23;;
32637;SDS011;19045;52.268;10.506;2022-11-20T04:34:27;28.23;;;16.65;;
32637;SDS011;19045;52.268;10.506;2022-11-20T04:36:54;25.77;;;16.77;;
32637;SDS011;19045;52.268;10.506;2022-11-20T04:39:20;27.33;;;17.38;;
32637;SDS011;19045;52.268;10.506;2022-11-20T04:41:48;28.20;;;16.42;;
32637;SDS011;19045;52.268;10.506;2022-11-20T04:44:35;28.15;;;16.85;;
32637;SDS011;19045;52.268;10.506;2022-11-20T04:47:01;26.77;;;17.30;;
32637;SDS011;19045;52.268;10.506;2022-11-20T04:49:28;29.63;;;17.23;;
32637;SDS011;19045;52.268;10.506;2022-11-20T04:51:56;24.95;;;16.08;;
32637;SDS011;19045;52.268;10.506;2022-11-20T04:54:23;24.35;;;15.95;;
32637;SDS011;19045;52.268;10.506;2022-11-20T04:56:51;27.92;;;17.05;;
32637;SDS011;19045;52.268;10.506;2022-11-20T04:59:18;28.95;;;16.42;;
32637;SDS011;19045;52.268;10.506;2022-11-20T05:01:44;23.83;;;15.68;;
32637;SDS011;19045;52.268;10.506;2022-11-20T05:04:11;24.73;;;16.33;;
32637;SDS011;19045;52.268;10.506;2022-11-20T05:06:37;24.75;;;16.00;;
32637;SDS011;19045;52.268;10.506;2022-11-20T05:09:04;26.42;;;16.27;;
32637;SDS011;19045;52.268;10.506;2022-11-20T05:11:31;24.17;;;15.63;;
32637;SDS011;19045;52.268;10.506;2022-11-20T05:13:59;26.75;;;17.42;;
32637;SDS011;19045;52.268;10.506;2022-11-20T05:16:26;29.33;;;17.38;;
32637;SDS011;19045;52.268;10.506;2022-11-20T05:18:53;25.50;;;16.63;;
32637;SDS011;19045;52.268;10.506;2022-11-20T05:21:20;26.02;;;16.00;;
32637;SDS011;19045;52.268;10.506;2022-11-20T05:23:47;24.45;;;15.68;;
32637;SDS011;19045;52.268;10.506;2022-11-20T05:26:15;25.08;;;15.55;;
32637;SDS011;19045;52.268;10.506;2022-11-20T05:28:43;24.58;;;14.93;;
32637;SDS011;19045;52.268;10.506;2022-11-20T05:31:12;25.23;;;16.58;;
32637;SDS011;19045;52.268;10.506;2022-11-20T05:33:40;23.40;;;15.60;;
32637;SDS011;19045;52.268;10.506;2022-11-20T05:36:08;24.75;;;16.65;;
32637;SDS011;19045;52.268;10.506;2022-11-20T05:38:35;28.30;;;15.65;;
32637;SDS011;19045;52.268;10.506;2022-11-20T05:41:03;27.08;;;16.92;;
32637;SDS011;19045;52.268;10.506;2022-11-20T05:43:31;30.33;;;16.45;;
32637;SDS011;19045;52.268;10.506;2022-11-20T05:45:58;25.05;;;16.02;;
32637;SDS011;19045;52.268;10.506;2022-11-20T05:48:26;25.15;;;15.50;;
32637;SDS011;19045;52.268;10.506;2022-11-20T05:50:53;29.27;;;16.90;;
32637;SDS011;19045;52.268;10.506;2022-11-20T05:53:20;24.15;;;15.82;;
32637;SDS011;19045;52.268;10.506;2022-11-20T05:55:46;23.75;;;15.38;;
32637;SDS011;19045;52.268;10.506;2022-11-20T05:58:22;25.75;;;16.30;;
32637;SDS011;19045;52.268;10.506;2022-11-20T06:00:50;25.00;;;16.58;;
32637;SDS011;19045;52.268;10.506;2022-11-20T06:03:17;24.48;;;15.73;;
32637;SDS011;19045;52.268;10.506;2022-11-20T06:05:45;25.80;;;16.83;;
32637;SDS011;19045;52.268;10.506;2022-11-20T06:08:12;23.58;;;16.60;;
32637;SDS011;19045;52.268;10.506;2022-11-20T06:10:39;26.92;;;17.42;;
32637;SDS011;19045;52.268;10.506;2022-11-20T06:13:05;24.70;;;16.58;;
32637;SDS011;19045;52.268;10.506;2022-11-20T06:15:32;26.50;;;14.93;;
32637;SDS011;19045;52.268;10.506;2022-11-20T06:17:59;23.08;;;15.45;;
32637;SDS011;19045;52.268;10.506;2022-11-20T06:20:25;22.50;;;15.35;;
32637;SDS011;19045;52.268;10.506;2022-11-20T06:22:53;24.85;;;15.77;;
32637;SDS011;19045;52.268;10.506;2022-11-20T06:25:20;25.48;;;15.68;;
32637;SDS011;19045;52.268;10.506;2022-11-20T06:27:46;23.15;;;15.82;;
32637;SDS011;19045;52.268;10.506;2022-11-20T06:30:13;22.30;;;15.68;;
32637;SDS011;19045;52.268;10.506;2022-11-20T06:32:40;25.88;;;15.43;;
32637;SDS011;19045;52.268;10.506;2022-11-20T06:35:07;27.92;;;17.08;;
32637;SDS011;19045;52.268;10.506;2022-11-20T06:37:34;24.70;;;15.70;;
32637;SDS011;19045;52.268;10.506;2022-11-20T06:40:02;23.80;;;16.10;;
32637;SDS011;19045;52.268;10.506;2022-11-20T06:42:29;23.77;;;16.17;;
32637;SDS011;19045;52.268;10.506;2022-11-20T06:44:56;25.25;;;15.35;;
32637;SDS011;19045;52.268;10.506;2022-11-20T06:47:23;24.65;;;16.20;;
32637;SDS011;19045;52.268;10.506;2022-11-20T06:49:49;26.52;;;16.38;;
32637;SDS011;19045;52.268;10.506;2022-11-20T06:52:16;21.83;;;15.13;;
32637;SDS011;19045;52.268;10.506;2022-11-20T06:54:42;24.27;;;15.85;;
32637;SDS011;19045;52.268;10.506;2022-11-20T06:57:10;23.92;;;16.13;;
32637;SDS011;19045;52.268;10.506;2022-11-20T06:59:37;23.55;;;16.27;;
32637;SDS011;19045;52.268;10.506;2022-11-20T07:02:04;25.80;;;15.65;;
32637;SDS011;19045;52.268;10.506;2022-11-20T07:04:30;22.73;;;15.43;;
32637;SDS011;19045;52.268;10.506;2022-11-20T07:06:57;27.77;;;16.83;;
32637;SDS011;19045;52.268;10.506;2022-11-20T07:09:24;26.98;;;15.20;;
32637;SDS011;19045;52.268;10.506;2022-11-20T07:11:50;24.58;;;16.02;;
32637;SDS011;19045;52.268;10.506;2022-11-20T07:14:18;22.23;;;15.07;;
32637;SDS011;19045;52.268;10.506;2022-11-20T07:16:45;22.30;;;14.90;;
32637;SDS011;19045;52.268;10.506;2022-11-20T07:19:12;23.52;;;16.00;;
32637;SDS011;19045;52.268;10.506;2022-11-20T07:21:39;23.17;;;15.07;;
32637;SDS011;19045;52.268;10.506;2022-11-20T07:24:05;24.77;;;16.48;;
32637;SDS011;19045;52.268;10.506;2022-11-20T07:26:32;25.55;;;16.77;;
32637;SDS011;19045;52.268;10.506;2022-11-20T07:28:59;23.58;;;15.85;;
32637;SDS011;19045;52.268;10.506;2022-11-20T07:31:27;26.00;;;16.88;;
32637;SDS011;19045;52.268;10.506;2022-11-20T07:33:54;24.25;;;15.48;;
32637;SDS011;19045;52.268;10.506;2022-11-20T07:36:20;25.08;;;16.10;;
32637;SDS011;19045;52.268;10.506;2022-11-20T07:38:47;31.45;;;15.93;;
32637;SDS011;19045;52.268;10.506;2022-11-20T07:41:14;24.02;;;16.05;;
32637;SDS011;19045;52.268;10.506;2022-11-20T07:43:41;25.65;;;16.75;;
32637;SDS011;19045;52.268;10.506;2022-11-20T07:46:07;26.50;;;16.80;;
32637;SDS011;19045;52.268;10.506;2022-11-20T07:48:35;24.80;;;16.20;;
32637;SDS011;19045;52.268;10.506;2022-11-20T07:51:02;27.40;;;17.20;;
32637;SDS011;19045;52.268;10.506;2022-11-20T07:53:29;26.10;;;16.65;;
32637;SDS011;19045;52.268;10.506;2022-11-20T07:55:59;24.25;;;14.82;;
32637;SDS011;19045;52.268;10.506;2022-11-20T07:58:25;26.35;;;16.88;;
32637;SDS011;19045;52.268;10.506;2022-11-20T08:00:52;26.77;;;15.90;;
32637;SDS011;19045;52.268;10.506;2022-11-20T08:03:19;25.38;;;15.55;;
32637;SDS011;19045;52.268;10.506;2022-11-20T08:05:47;22.23;;;14.10;;
32637;SDS011;19045;52.268;10.506;2022-11-20T08:08:13;28.02;;;16.73;;
32637;SDS011;19045;52.268;10.506;2022-11-20T08:10:40;23.83;;;15.25;;
32637;SDS011;19045;52.268;10.506;2022-11-20T08:13:08;24.65;;;15.82;;
32637;SDS011;19045;52.268;10.506;2022-11-20T08:15:52;23.98;;;15.27;;
32637;SDS011;19045;52.268;10.506;2022-11-20T08:18:19;21.20;;;14.60;;
32637;SDS011;19045;52.268;10.506;2022-11-20T08:20:47;24.25;;;15.18;;
32637;SDS011;19045;52.268;10.506;2022-11-20T08:23:13;23.83;;;15.73;;
32637;SDS011;19045;52.268;10.506;2022-11-20T08:25:40;24.20;;;15.45;;
32637;SDS011;19045;52.268;10.506;2022-11-20T08:28:07;23.00;;;15.02;;
32637;SDS011;19045;52.268;10.506;2022-11-20T08:30:35;26.35;;;17.02;;
32637;SDS011;19045;52.268;10.506;2022-11-20T08:33:03;24.75;;;15.90;;
32637;SDS011;19045;52.268;10.506;2022-11-20T08:35:32;22.98;;;15.27;;
32637;SDS011;19045;52.268;10.506;2022-11-20T08:38:02;24.38;;;15.68;;
32637;SDS011;19045;52.268;10.506;2022-11-20T08:40:29;25.52;;;15.40;;
32637;SDS011;19045;52.268;10.506;2022-11-20T08:42:56;26.00;;;15.15;;
32637;SDS011;19045;52.268;10.506;2022-11-20T08:45:23;24.35;;;15.70;;
32637;SDS011;19045;52.268;10.506;2022-11-20T08:47:50;26.83;;;15.43;;
32637;SDS011;19045;52.268;10.506;2022-11-20T08:50:17;26.52;;;15.30;;
32637;SDS011;19045;52.268;10.506;2022-11-20T08:52:44;28.98;;;15.98;;
32637;SDS011;19045;52.268;10.506;2022-11-20T08:55:12;25.15;;;16.38;;
32637;SDS011;19045;52.268;10.506;2022-11-20T08:57:38;23.63;;;15.15;;
32637;SDS011;19045;52.268;10.506;2022-11-20T09:00:06;32.72;;;15.93;;
32637;SDS011;19045;52.268;10.506;2022-11-20T09:02:36;22.05;;;13.68;;
32637;SDS011;19045;52.268;10.506;2022-11-20T09:05:03;26.92;;;15.65;;
32637;SDS011;19045;52.268;10.506;2022-11-20T09:07:30;24.45;;;15.80;;
32637;SDS011;19045;52.268;10.506;2022-11-20T09:09:57;25.63;;;15.30;;
32637;SDS011;19045;52.268;10.506;2022-11-20T09:12:25;24.30;;;14.02;;
32637;SDS011;19045;52.268;10.506;2022-11-20T09:14:52;22.25;;;15.30;;
32637;SDS011;19045;52.268;10.506;2022-11-20T09:17:18;21.98;;;14.85;;
32637;SDS011;19045;52.268;10.506;2022-11-20T09:19:48;24.42;;;15.65;;
32637;SDS011;19045;52.268;10.506;2022-11-20T09:22:14;25.17;;;15.05;;
32637;SDS011;19045;52.268;10.506;2022-11-20T09:24:41;25.20;;;16.88;;
32637;SDS011;19045;52.268;10.506;2022-11-20T09:27:08;26.38;;;16.23;;
32637;SDS011;19045;52.268;10.506;2022-11-20T09:29:39;27.52;;;16.88;;
32637;SDS011;19045;52.268;10.506;2022-11-20T09:32:05;25.65;;;15.80;;
32637;SDS011;19045;52.268;10.506;2022-11-20T09:34:33;25.27;;;16.23;;
32637;SDS011;19045;52.268;10.506;2022-11-20T09:36:59;25.25;;;14.52;;
32637;SDS011;19045;52.268;10.506;2022-11-20T09:39:44;19.80;;;12.88;;
32637;SDS011;19045;52.268;10.506;2022-11-20T09:42:17;17.30;;;12.23;;
32637;SDS011;19045;52.268;10.506;2022-11-20T09:45:02;21.00;;;13.18;;
32637;SDS011;19045;52.268;10.506;2022-11-20T09:47:42;18.20;;;12.25;;
32637;SDS011;19045;52.268;10.506;2022-11-20T09:50:23;18.58;;;11.73;;
32637;SDS011;19045;52.268;10.506;2022-11-20T09:53:03;20.00;;;12.68;;
32637;SDS011;19045;52.268;10.506;2022-11-20T09:55:40;21.05;;;12.60;;
32637;SDS011;19045;52.268;10.506;2022-11-20T09:58:28;16.60;;;11.90;;
32637;SDS011;19045;52.268;10.506;2022-11-20T10:01:12;18.77;;;11.50;;
32637;SDS011;19045;52.268;10.506;2022-11-20T10:03:44;17.50;;;10.93;;
32637;SDS011;19045;52.268;10.506;2022-11-20T10:06:18;18.70;;;11.48;;
32637;SDS011;19045;52.268;10.506;2022-11-20T10:08:53;20.45;;;10.65;;
32637;SDS011;19045;52.268;10.506;2022-11-20T10:11:29;17.05;;;11.20;;
32637;SDS011;19045;52.268;10.506;2022-11-20T10:14:03;18.58;;;11.30;;
32637;SDS011;19045;52.268;10.506;2022-11-20T10:16:41;17.05;;;10.80;;
32637;SDS011;19045;52.268;10.506;2022-11-20T10:19:22;16.88;;;11.02;;
32637;SDS011;19045;52.268;10.506;2022-11-20T10:22:02;17.88;;;11.00;;
32637;SDS011;19045;52.268;10.506;2022-11-20T10:24:41;18.70;;;10.60;;
32637;SDS011;19045;52.268;10.506;2022-11-20T10:27:25;15.10;;;10.02;;
32637;SDS011;19045;52.268;10.506;2022-11-20T10:30:03;19.23;;;11.48;;
32637;SDS011;19045;52.268;10.506;2022-11-20T10:32:37;15.68;;;11.18;;
32637;SDS011;19045;52.268;10.506;2022-11-20T10:35:07;20.63;;;12.82;;
32637;SDS011;19045;52.268;10.506;2022-11-20T10:37:44;19.77;;;12.50;;
32637;SDS011;19045;52.268;10.506;2022-11-20T10:40:18;19.83;;;13.00;;
32637;SDS011;19045;52.268;10.506;2022-11-20T10:42:51;20.23;;;13.90;;
32637;SDS011;19045;52.268;10.506;2022-11-20T10:45:27;22.57;;;12.70;;
32637;SDS011;19045;52.268;10.506;2022-11-20T10:48:10;19.08;;;12.82;;
32637;SDS011;19045;52.268;10.506;2022-11-20T10:50:44;19.58;;;12.30;;
32637;SDS011;19045;52.268;10.506;2022-11-20T10:53:22;20.38;;;12.73;;
32637;SDS011;19045;52.268;10.506;2022-11-20T10:56:00;20.38;;;13.68;;
32637;SDS011;19045;52.268;10.506;2022-11-20T10:58:35;19.77;;;12.80;;
32637;SDS011;19045;52.268;10.506;2022-11-20T11:01:13;20.80;;;14.07;;
32637;SDS011;19045;52.268;10.506;2022-11-20T11:03:43;21.70;;;14.00;;
32637;SDS011;19045;52.268;10.506;2022-11-20T11:06:12;24.25;;;14.05;;
32637;SDS011;19045;52.268;10.506;2022-11-20T11:08:45;24.20;;;13.82;;
32637;SDS011;19045;52.268;10.506;2022-11-20T11:11:18;21.30;;;14.32;;
32637;SDS011;19045;52.268;10.506;2022-11-20T11:13:48;20.23;;;13.35;;
32637;SDS011;19045;52.268;10.506;2022-11-20T11:16:20;20.92;;;12.13;;
32637;SDS011;19045;52.268;10.506;2022-11-20T11:18:49;14.77;;;10.93;;
32637;SDS011;19045;52.268;10.506;2022-11-20T11:21:23;19.30;;;13.40;;
32637;SDS011;19045;52.268;10.506;2022-11-20T11:23:57;15.25;;;10.82;;
32637;SDS011;19045;52.268;10.506;2022-11-20T11:26:25;13.43;;;9.93;;
32637;SDS011;19045;52.268;10.506;2022-11-20T11:28:53;10.80;;;7.95;;
32637;SDS011;19045;52.268;10.506;2022-11-20T11:31:22;14.10;;;9.35;;
32637;SDS011;19045;52.268;10.506;2022-11-20T11:33:51;14.13;;;10.45;;
32637;SDS011;19045;52.268;10.506;2022-11-20T11:36:18;14.18;;;9.90;;
32637;SDS011;19045;52.268;10.506;2022-11-20T11:38:50;13.73;;;9.90;;
32637;SDS011;19045;52.268;10.506;2022-11-20T11:41:19;13.32;;;9.98;;
32637;SDS011;19045;52.268;10.506;2022-11-20T11:43:51;14.00;;;10.10;;
32637;SDS011;19045;52.268;10.506;2022-11-20T11:46:37;13.85;;;10.10;;
32637;SDS011;19045;52.268;10.506;2022-11-20T11:49:16;18.48;;;11.13;;
32637;SDS011;19045;52.268;10.506;2022-11-20T11:51:47;16.00;;;10.93;;
32637;SDS011;19045;52.268;10.506;2022-11-20T11:54:23;16.73;;;10.32;;
32637;SDS011;19045;52.268;10.506;2022-11-20T11:56:54;16.42;;;10.88;;
32637;SDS011;19045;52.268;10.506;2022-11-20T11:59:25;15.32;;;10.32;;
32637;SDS011;19045;52.268;10.506;2022-11-20T12:01:57;14.57;;;10.18;;
32637;SDS011;19045;52.268;10.506;2022-11-20T12:04:34;16.10;;;10.80;;
32637;SDS011;19045;52.268;10.506;2022-11-20T12:07:09;17.17;;;10.38;;
32637;SDS011;19045;52.268;10.506;2022-11-20T12:09:41;16.00;;;10.27;;
32637;SDS011;19045;52.268;10.506;2022-11-20T12:12:13;14.00;;;10.48;;
32637;SDS011;19045;52.268;10.506;2022-11-20T12:14:44;14.40;;;9.38;;
32637;SDS011;19045;52.268;10.506;2022-11-20T12:17:14;16.00;;;10.20;;
32637;SDS011;19045;52.268;10.506;2022-11-20T12:19:44;16.10;;;10.82;;
32637;SDS011;19045;52.268;10.506;2022-11-20T12:22:13;15.73;;;10.57;;
32637;SDS011;19045;52.268;10.506;2022-11-20T12:24:51;15.80;;;10.80;;
32637;SDS011;19045;52.268;10.506;2022-11-20T12:27:36;16.55;;;11.15;;
32637;SDS011;19045;52.268;10.506;2022-11-20T12:30:14;16.08;;;10.90;;
32637;SDS011;19045;52.268;10.506;2022-11-20T12:32:54;15.68;;;10.63;;
32637;SDS011;19045;52.268;10.506;2022-11-20T12:38:45;16.90;;;10.77;;
32637;SDS011;19045;52.268;10.506;2022-11-20T12:41:27;17.42;;;11.20;;
32637;SDS011;19045;52.268;10.506;2022-11-20T12:44:29;17.42;;;11.15;;
32637;SDS011;19045;52.268;10.506;2022-11-20T12:47:26;18.33;;;11.05;;
32637;SDS011;19045;52.268;10.506;2022-11-20T12:50:02;16.67;;;10.25;;
32637;SDS011;19045;52.268;10.506;2022-11-20T12:52:40;16.83;;;10.95;;
32637;SDS011;19045;52.268;10.506;2022-11-20T12:55:21;15.43;;;10.43;;
32637;SDS011;19045;52.268;10.506;2022-11-20T12:57:55;15.13;;;10.80;;
32637;SDS011;19045;52.268;10.506;2022-11-20T13:00:27;14.18;;;10.57;;
32637;SDS011;19045;52.268;10.506;2022-11-20T13:06:05;16.02;;;10.00;;
32637;SDS011;19045;52.268;10.506;2022-11-20T13:08:41;15.02;;;10.40;;
32637;SDS011;19045;52.268;10.506;2022-11-20T13:11:12;14.95;;;9.57;;
32637;SDS011;19045;52.268;10.506;2022-11-20T13:13:50;19.90;;;10.38;;
32637;SDS011;19045;52.268;10.506;2022-11-20T13:16:30;16.67;;;10.48;;
32637;SDS011;19045;52.268;10.506;2022-11-20T13:19:03;15.25;;;9.75;;
32637;SDS011;19045;52.268;10.506;2022-11-20T13:21:38;14.88;;;10.15;;
32637;SDS011;19045;52.268;10.506;2022-11-20T13:24:20;15.95;;;10.70;;
32637;SDS011;19045;52.268;10.506;2022-11-20T13:26:59;18.67;;;10.80;;
32637;SDS011;19045;52.268;10.506;2022-11-20T13:29:26;16.83;;;11.85;;
32637;SDS011;19045;52.268;10.506;2022-11-20T13:32:01;17.45;;;11.65;;
32637;SDS011;19045;52.268;10.506;2022-11-20T13:34:30;19.75;;;12.32;;
32637;SDS011;19045;52.268;10.506;2022-11-20T13:36:57;18.25;;;12.68;;
32637;SDS011;19045;52.268;10.506;2022-11-20T13:39:27;19.52;;;12.82;;
32637;SDS011;19045;52.268;10.506;2022-11-20T13:41:55;17.40;;;12.50;;
32637;SDS011;19045;52.268;10.506;2022-11-20T13:44:24;19.92;;;12.88;;
32637;SDS011;19045;52.268;10.506;2022-11-20T13:46:53;20.20;;;12.95;;
32637;SDS011;19045;52.268;10.506;2022-11-20T13:49:22;18.05;;;12.27;;
32637;SDS011;19045;52.268;10.506;2022-11-20T13:51:54;37.15;;;13.25;;
32637;SDS011;19045;52.268;10.506;2022-11-20T13:54:38;16.00;;;11.00;;
32637;SDS011;19045;52.268;10.506;2022-11-20T13:57:34;23.33;;;12.43;;
32637;SDS011;19045;52.268;10.506;2022-11-20T14:00:11;18.60;;;11.38;;
32637;SDS011;19045;52.268;10.506;2022-11-20T14:02:39;18.52;;;11.90;;
32637;SDS011;19045;52.268;10.506;2022-11-20T14:05:11;16.38;;;11.50;;
32637;SDS011;19045;52.268;10.506;2022-11-20T14:07:45;15.88;;;11.05;;
32637;SDS011;19045;52.268;10.506;2022-11-20T14:10:20;19.10;;;12.60;;
32637;SDS011;19045;52.268;10.506;2022-11-20T14:12:48;18.67;;;13.13;;
32637;SDS011;19045;52.268;10.506;2022-11-20T14:15:23;18.33;;;12.45;;
32637;SDS011;19045;52.268;10.506;2022-11-20T14:17:51;19.08;;;12.10;;
32637;SDS011;19045;52.268;10.506;2022-11-20T14:20:18;17.30;;;11.75;;
32637;SDS011;19045;52.268;10.506;2022-11-20T14:22:48;21.58;;;12.60;;
32637;SDS011;19045;52.268;10.506;2022-11-20T14:25:21;16.98;;;11.93;;
32637;SDS011;19045;52.268;10.506;2022-11-20T14:27:52;21.15;;;13.15;;
32637;SDS011;19045;52.268;10.506;2022-11-20T14:30:21;20.23;;;13.10;;
32637;SDS011;19045;52.268;10.506;2022-11-20T14:32:49;21.33;;;13.32;;
32637;SDS011;19045;52.268;10.506;2022-11-20T14:35:18;21.38;;;12.48;;